Monterey (MRY/KMRY)

Map

Destinations

Information

Location
Monterey, CA
Local Time
01:14 / 1:14 am
GMT Time
08:14 / 8:14 am
Gates
1
No FAA reported delays
METAR KMRY 270754Z AUTO 00000KT 10SM OVC021 11/09 A3006 RMK AO2 SLP192 T01060089 401610106
TAF KMRY 270540Z 2706/2806 17003KT P6SM FEW015 TEMPO 2706/2708 BKN015 FM270800 18003KT P6SM OVC012 FM271200 20003KT P6SM BKN009 OVC012 FM271700 29005KT P6SM SCT012 BKN018 FM271900 26010KT P6SM SCT020 FM280100 23006KT P6SM BKN015